WZZ2MN LGAV-LGMK
Flight info
| Callsign | WZZ2MN |
|---|---|
| Flight time | 0h 29m |
| Altitude | 11000 |
| Route | KEA L995 VARIX |
| Aircraft | A21N/M-SDE2E3FGHIJ1RWXY/LB1 |
Departure
| Time | 2026-05-08 17:12 |
|---|---|
| Airport | Athens Eleftherios Venizelos International Airport (LGAV) |
Arrival
| Time | 2026-05-08 17:41 |
|---|---|
| Airport | Mykonos Island National Airport (LGMK) |
| Time | Latitude | Longitude | Altitude | Speed | Heading |
|---|---|---|---|---|---|
| 2026-05-08 16:41 | 37.94097 | 23.95424 | 306 ft | 0 kts | 218° |
| 2026-05-08 17:00 | 37.94099 | 23.95425 | 305 ft | 2 kts | 218° |
| 2026-05-08 17:00 | 37.94115 | 23.95441 | 305 ft | 3 kts | 218° |
| 2026-05-08 17:00 | 37.94128 | 23.95454 | 305 ft | 3 kts | 217° |
| 2026-05-08 17:00 | 37.94144 | 23.95469 | 305 ft | 3 kts | 212° |
| 2026-05-08 17:01 | 37.94162 | 23.95481 | 307 ft | 3 kts | 192° |
| 2026-05-08 17:01 | 37.94176 | 23.95481 | 307 ft | 3 kts | 140° |
| 2026-05-08 17:01 | 37.94188 | 23.95464 | 306 ft | 3 kts | 127° |
| 2026-05-08 17:01 | 37.94194 | 23.95454 | 306 ft | 0 kts | 127° |
| 2026-05-08 17:05 | 37.94187 | 23.95465 | 307 ft | 4 kts | 127° |
| 2026-05-08 17:05 | 37.94166 | 23.95501 | 305 ft | 6 kts | 127° |
| 2026-05-08 17:05 | 37.94137 | 23.95548 | 306 ft | 7 kts | 127° |
| 2026-05-08 17:05 | 37.94103 | 23.95606 | 306 ft | 9 kts | 127° |
| 2026-05-08 17:06 | 37.94083 | 23.95681 | 302 ft | 10 kts | 69° |
| 2026-05-08 17:06 | 37.94140 | 23.95745 | 303 ft | 12 kts | 37° |
| 2026-05-08 17:06 | 37.94212 | 23.95815 | 306 ft | 14 kts | 37° |
| 2026-05-08 17:06 | 37.94295 | 23.95893 | 306 ft | 16 kts | 37° |
| 2026-05-08 17:07 | 37.94387 | 23.95981 | 305 ft | 17 kts | 37° |
| 2026-05-08 17:07 | 37.94488 | 23.96077 | 304 ft | 19 kts | 36° |
| 2026-05-08 17:07 | 37.94598 | 23.96180 | 306 ft | 20 kts | 37° |
| 2026-05-08 17:07 | 37.94714 | 23.96291 | 306 ft | 22 kts | 37° |
| 2026-05-08 17:08 | 37.94835 | 23.96405 | 307 ft | 17 kts | 37° |
| 2026-05-08 17:08 | 37.94927 | 23.96493 | 308 ft | 17 kts | 37° |
| 2026-05-08 17:08 | 37.95018 | 23.96579 | 309 ft | 15 kts | 37° |
| 2026-05-08 17:08 | 37.95095 | 23.96652 | 308 ft | 14 kts | 37° |
| 2026-05-08 17:09 | 37.95175 | 23.96728 | 309 ft | 15 kts | 37° |
| 2026-05-08 17:09 | 37.95263 | 23.96813 | 308 ft | 17 kts | 37° |
| 2026-05-08 17:09 | 37.95347 | 23.96892 | 308 ft | 8 kts | 37° |
| 2026-05-08 17:09 | 37.95387 | 23.96948 | 308 ft | 10 kts | 81° |
| 2026-05-08 17:10 | 37.95351 | 23.97015 | 311 ft | 9 kts | 167° |
| 2026-05-08 17:10 | 37.95277 | 23.97032 | 314 ft | 12 kts | 170° |
| 2026-05-08 17:10 | 37.95208 | 23.97036 | 315 ft | 9 kts | 204° |
| 2026-05-08 17:10 | 37.95190 | 23.97020 | 315 ft | 0 kts | 216° |
| 2026-05-08 17:11 | 37.95123 | 23.96957 | 315 ft | 39 kts | 217° |
| 2026-05-08 17:11 | 37.94702 | 23.96557 | 306 ft | 111 kts | 217° |
| 2026-05-08 17:11 | 37.93932 | 23.95823 | 339 ft | 156 kts | 218° |
| 2026-05-08 17:12 | 37.93078 | 23.95018 | 965 ft | 152 kts | 216° |
| 2026-05-08 17:12 | 37.92159 | 23.94324 | 1550 ft | 154 kts | 206° |
| 2026-05-08 17:12 | 37.91182 | 23.93677 | 2072 ft | 166 kts | 207° |
| 2026-05-08 17:12 | 37.90103 | 23.92978 | 2576 ft | 183 kts | 208° |
| 2026-05-08 17:13 | 37.88917 | 23.92214 | 3097 ft | 202 kts | 208° |
| 2026-05-08 17:13 | 37.87605 | 23.91335 | 3526 ft | 224 kts | 210° |
| 2026-05-08 17:13 | 37.86201 | 23.90376 | 4201 ft | 233 kts | 210° |
| 2026-05-08 17:13 | 37.84761 | 23.89391 | 5024 ft | 237 kts | 210° |
| 2026-05-08 17:14 | 37.83248 | 23.88469 | 5737 ft | 251 kts | 201° |
| 2026-05-08 17:14 | 37.81455 | 23.88274 | 6406 ft | 270 kts | 176° |
| 2026-05-08 17:14 | 37.79669 | 23.89161 | 7150 ft | 287 kts | 149° |
| 2026-05-08 17:14 | 37.78318 | 23.91087 | 7885 ft | 303 kts | 123° |
| 2026-05-08 17:15 | 37.77417 | 23.93530 | 8642 ft | 311 kts | 116° |
| 2026-05-08 17:15 | 37.76568 | 23.96069 | 9359 ft | 316 kts | 116° |
| 2026-05-08 17:15 | 37.75683 | 23.98628 | 10088 ft | 321 kts | 117° |
| 2026-05-08 17:15 | 37.74745 | 24.01253 | 10520 ft | 336 kts | 118° |
| 2026-05-08 17:16 | 37.73739 | 24.04005 | 10829 ft | 354 kts | 118° |
| 2026-05-08 17:16 | 37.72669 | 24.06899 | 11063 ft | 375 kts | 118° |
| 2026-05-08 17:16 | 37.71529 | 24.09983 | 11124 ft | 397 kts | 117° |
| 2026-05-08 17:16 | 37.70353 | 24.13157 | 11124 ft | 400 kts | 117° |
| 2026-05-08 17:17 | 37.69183 | 24.16324 | 11105 ft | 390 kts | 117° |
| 2026-05-08 17:17 | 37.68035 | 24.19412 | 11090 ft | 389 kts | 117° |
| 2026-05-08 17:17 | 37.66886 | 24.22497 | 11077 ft | 389 kts | 117° |
| 2026-05-08 17:17 | 37.65732 | 24.25590 | 11085 ft | 389 kts | 117° |
| 2026-05-08 17:18 | 37.64579 | 24.28688 | 11097 ft | 393 kts | 117° |
| 2026-05-08 17:18 | 37.63413 | 24.31814 | 11101 ft | 395 kts | 117° |
| 2026-05-08 17:18 | 37.62230 | 24.34979 | 11103 ft | 400 kts | 117° |
| 2026-05-08 17:18 | 37.61041 | 24.38156 | 11096 ft | 402 kts | 117° |
| 2026-05-08 17:19 | 37.59846 | 24.41350 | 11097 ft | 401 kts | 117° |
| 2026-05-08 17:19 | 37.58653 | 24.44526 | 11095 ft | 401 kts | 117° |
| 2026-05-08 17:19 | 37.57461 | 24.47700 | 11090 ft | 400 kts | 117° |
| 2026-05-08 17:19 | 37.56289 | 24.50827 | 11001 ft | 386 kts | 117° |
| 2026-05-08 17:20 | 37.55179 | 24.53785 | 10845 ft | 371 kts | 117° |
| 2026-05-08 17:20 | 37.54099 | 24.56656 | 10661 ft | 356 kts | 117° |
| 2026-05-08 17:20 | 37.53054 | 24.59427 | 10456 ft | 344 kts | 117° |
| 2026-05-08 17:20 | 37.52048 | 24.62100 | 10251 ft | 333 kts | 117° |
| 2026-05-08 17:21 | 37.51067 | 24.64704 | 10037 ft | 327 kts | 117° |
| 2026-05-08 17:21 | 37.50093 | 24.67289 | 9817 ft | 327 kts | 117° |
| 2026-05-08 17:21 | 37.49118 | 24.69864 | 9591 ft | 325 kts | 118° |
| 2026-05-08 17:21 | 37.48150 | 24.72417 | 9362 ft | 322 kts | 118° |
| 2026-05-08 17:22 | 37.47190 | 24.74950 | 9118 ft | 320 kts | 118° |
| 2026-05-08 17:22 | 37.46234 | 24.77470 | 9041 ft | 318 kts | 118° |
| 2026-05-08 17:22 | 37.45281 | 24.79981 | 9047 ft | 318 kts | 118° |
| 2026-05-08 17:22 | 37.44328 | 24.82494 | 9064 ft | 318 kts | 118° |
| 2026-05-08 17:23 | 37.43388 | 24.84988 | 8806 ft | 316 kts | 118° |
| 2026-05-08 17:23 | 37.42446 | 24.87476 | 8537 ft | 314 kts | 118° |
| 2026-05-08 17:23 | 37.41509 | 24.89950 | 8284 ft | 312 kts | 118° |
| 2026-05-08 17:23 | 37.40576 | 24.92408 | 8033 ft | 310 kts | 118° |
| 2026-05-08 17:24 | 37.39652 | 24.94848 | 7786 ft | 308 kts | 116° |
| 2026-05-08 17:24 | 37.39131 | 24.97447 | 7533 ft | 308 kts | 92° |
| 2026-05-08 17:24 | 37.39316 | 25.00118 | 7296 ft | 306 kts | 80° |
| 2026-05-08 17:24 | 37.39694 | 25.02744 | 7088 ft | 305 kts | 78° |
| 2026-05-08 17:25 | 37.40080 | 25.05363 | 7047 ft | 304 kts | 79° |
| 2026-05-08 17:25 | 37.40452 | 25.07984 | 7054 ft | 304 kts | 79° |
| 2026-05-08 17:25 | 37.40813 | 25.10606 | 7069 ft | 304 kts | 79° |
| 2026-05-08 17:25 | 37.41169 | 25.13230 | 7078 ft | 305 kts | 79° |
| 2026-05-08 17:26 | 37.41523 | 25.15856 | 7082 ft | 304 kts | 80° |
| 2026-05-08 17:26 | 37.41875 | 25.18482 | 7084 ft | 305 kts | 80° |
| 2026-05-08 17:26 | 37.42224 | 25.21114 | 7086 ft | 305 kts | 80° |
| 2026-05-08 17:26 | 37.42577 | 25.23741 | 7086 ft | 305 kts | 79° |
| 2026-05-08 17:27 | 37.42936 | 25.26368 | 7088 ft | 305 kts | 79° |
| 2026-05-08 17:27 | 37.43289 | 25.28997 | 7090 ft | 305 kts | 80° |
| 2026-05-08 17:27 | 37.43632 | 25.31562 | 7075 ft | 289 kts | 79° |
| 2026-05-08 17:27 | 37.43959 | 25.34032 | 7071 ft | 286 kts | 79° |
| 2026-05-08 17:28 | 37.44149 | 25.36509 | 7061 ft | 285 kts | 97° |
| 2026-05-08 17:28 | 37.43696 | 25.38932 | 7076 ft | 285 kts | 109° |
| 2026-05-08 17:28 | 37.43049 | 25.41281 | 7081 ft | 283 kts | 114° |
| 2026-05-08 17:28 | 37.42440 | 25.43650 | 7084 ft | 286 kts | 107° |
| 2026-05-08 17:29 | 37.41892 | 25.46058 | 7083 ft | 286 kts | 112° |
| 2026-05-08 17:29 | 37.40901 | 25.48157 | 7074 ft | 277 kts | 139° |
| 2026-05-08 17:29 | 37.39342 | 25.49461 | 7078 ft | 266 kts | 166° |
| 2026-05-08 17:29 | 37.37565 | 25.49822 | 7077 ft | 256 kts | 189° |
| 2026-05-08 17:30 | 37.35876 | 25.49304 | 7080 ft | 247 kts | 211° |
| 2026-05-08 17:30 | 37.34509 | 25.48077 | 7084 ft | 240 kts | 231° |
| 2026-05-08 17:30 | 37.33624 | 25.46348 | 7084 ft | 234 kts | 252° |
| 2026-05-08 17:30 | 37.33358 | 25.44356 | 7082 ft | 232 kts | 275° |
| 2026-05-08 17:31 | 37.33886 | 25.42453 | 7081 ft | 236 kts | 302° |
| 2026-05-08 17:31 | 37.35125 | 25.41081 | 7081 ft | 244 kts | 329° |
| 2026-05-08 17:31 | 37.36795 | 25.40532 | 7089 ft | 254 kts | 348° |
| 2026-05-08 17:31 | 37.38562 | 25.40347 | 7091 ft | 256 kts | 351° |
| 2026-05-08 17:32 | 37.40345 | 25.40198 | 7090 ft | 260 kts | 348° |
| 2026-05-08 17:32 | 37.42004 | 25.39560 | 7086 ft | 244 kts | 324° |
| 2026-05-08 17:32 | 37.43244 | 25.38195 | 7082 ft | 235 kts | 302° |
| 2026-05-08 17:32 | 37.43932 | 25.36371 | 7078 ft | 230 kts | 282° |
| 2026-05-08 17:33 | 37.44100 | 25.34381 | 7044 ft | 227 kts | 267° |
| 2026-05-08 17:33 | 37.43856 | 25.32437 | 6760 ft | 224 kts | 259° |
| 2026-05-08 17:33 | 37.43531 | 25.30550 | 6411 ft | 223 kts | 258° |
| 2026-05-08 17:33 | 37.43218 | 25.28640 | 6019 ft | 223 kts | 259° |
| 2026-05-08 17:34 | 37.42920 | 25.26719 | 5591 ft | 224 kts | 259° |
| 2026-05-08 17:34 | 37.42630 | 25.24789 | 5203 ft | 225 kts | 259° |
| 2026-05-08 17:34 | 37.42343 | 25.22849 | 4887 ft | 226 kts | 259° |
| 2026-05-08 17:34 | 37.42106 | 25.20890 | 4642 ft | 227 kts | 266° |
| 2026-05-08 17:35 | 37.42380 | 25.18931 | 4565 ft | 232 kts | 289° |
| 2026-05-08 17:35 | 37.43352 | 25.17306 | 4567 ft | 240 kts | 320° |
| 2026-05-08 17:35 | 37.44886 | 25.16452 | 4455 ft | 244 kts | 342° |
| 2026-05-08 17:35 | 37.46563 | 25.16050 | 4060 ft | 246 kts | 346° |
| 2026-05-08 17:36 | 37.48247 | 25.15673 | 3734 ft | 243 kts | 345° |
| 2026-05-08 17:36 | 37.49891 | 25.15368 | 3513 ft | 237 kts | 356° |
| 2026-05-08 17:36 | 37.51440 | 25.15948 | 3276 ft | 236 kts | 35° |
| 2026-05-08 17:36 | 37.52399 | 25.17506 | 2954 ft | 219 kts | 76° |
| 2026-05-08 17:37 | 37.52652 | 25.19304 | 2827 ft | 201 kts | 86° |
| 2026-05-08 17:37 | 37.52887 | 25.20980 | 2693 ft | 188 kts | 83° |
| 2026-05-08 17:37 | 37.53170 | 25.22549 | 2444 ft | 181 kts | 86° |
| 2026-05-08 17:37 | 37.53089 | 25.24046 | 2251 ft | 166 kts | 111° |
| 2026-05-08 17:38 | 37.52838 | 25.25483 | 2098 ft | 169 kts | 109° |
| 2026-05-08 17:38 | 37.52568 | 25.26907 | 2104 ft | 165 kts | 118° |
| 2026-05-08 17:38 | 37.52059 | 25.28070 | 2111 ft | 141 kts | 134° |
| 2026-05-08 17:38 | 37.51411 | 25.28969 | 2107 ft | 137 kts | 146° |
| 2026-05-08 17:39 | 37.50650 | 25.29673 | 2072 ft | 135 kts | 155° |
| 2026-05-08 17:39 | 37.50134 | 25.30110 | 1952 ft | 135 kts | 152° |
| 2026-05-08 17:39 | 37.49367 | 25.30781 | 1732 ft | 134 kts | 152° |
| 2026-05-08 17:39 | 37.48595 | 25.31436 | 1524 ft | 134 kts | 150° |
| 2026-05-08 17:40 | 37.47842 | 25.32135 | 1370 ft | 135 kts | 148° |
| 2026-05-08 17:40 | 37.47107 | 25.32865 | 1142 ft | 134 kts | 148° |
| 2026-05-08 17:40 | 37.46340 | 25.33506 | 845 ft | 131 kts | 157° |
| 2026-05-08 17:40 | 37.45492 | 25.33941 | 683 ft | 132 kts | 160° |
| 2026-05-08 17:41 | 37.44628 | 25.34327 | 490 ft | 132 kts | 161° |
| 2026-05-08 17:41 | 37.43796 | 25.34694 | 416 ft | 105 kts | 159° |
| 2026-05-08 17:41 | 37.43320 | 25.34907 | 411 ft | 55 kts | 161° |
| 2026-05-08 17:41 | 37.42991 | 25.35053 | 416 ft | 47 kts | 160° |
| 2026-05-08 17:42 | 37.42796 | 25.35143 | 412 ft | 14 kts | 148° |
| 2026-05-08 17:42 | 37.42743 | 25.35167 | 412 ft | 9 kts | 249° |
| 2026-05-08 17:42 | 37.42799 | 25.35136 | 416 ft | 11 kts | 349° |
| 2026-05-08 17:42 | 37.42880 | 25.35104 | 411 ft | 13 kts | 341° |
| 2026-05-08 17:43 | 37.42976 | 25.35061 | 419 ft | 16 kts | 340° |
| 2026-05-08 17:43 | 37.43084 | 25.35012 | 419 ft | 17 kts | 340° |
| 2026-05-08 17:43 | 37.43202 | 25.34959 | 415 ft | 19 kts | 340° |
| 2026-05-08 17:43 | 37.43317 | 25.34908 | 418 ft | 18 kts | 341° |
| 2026-05-08 17:44 | 37.43391 | 25.34850 | 417 ft | 11 kts | 296° |
| 2026-05-08 17:44 | 37.43417 | 25.34783 | 414 ft | 6 kts | 295° |
| 2026-05-08 17:44 | 37.43450 | 25.34738 | 411 ft | 8 kts | 335° |
| 2026-05-08 17:44 | 37.43504 | 25.34711 | 413 ft | 6 kts | 339° |
| 2026-05-08 17:45 | 37.43512 | 25.34667 | 413 ft | 6 kts | 255° |
| 2026-05-08 17:45 | 37.43508 | 25.34652 | 412 ft | 0 kts | 252° |